createdAt,value
2018-06-12T00:01:24.872Z,16.80
2018-06-12T00:03:53.663Z,16.90
2018-06-12T00:06:22.486Z,16.90
2018-06-12T00:08:51.251Z,17.00
2018-06-12T00:11:20.128Z,17.10
2018-06-12T00:13:48.927Z,17.10
2018-06-12T00:16:17.713Z,17.10
2018-06-12T00:18:46.511Z,17.10
2018-06-12T00:21:15.232Z,17.10
2018-06-12T00:23:43.977Z,17.20
2018-06-12T00:26:12.771Z,17.20
2018-06-12T00:28:41.536Z,17.10
2018-06-12T00:31:16.348Z,17.20
2018-06-12T00:33:45.133Z,17.20
2018-06-12T00:36:13.895Z,17.30
2018-06-12T00:38:42.672Z,17.30
2018-06-12T00:41:11.409Z,17.40
2018-06-12T00:43:40.167Z,17.40
2018-06-12T00:46:08.944Z,17.50
2018-06-12T00:48:37.678Z,17.50
2018-06-12T00:51:06.447Z,17.50
2018-06-12T00:53:35.223Z,17.60
2018-06-12T00:58:32.583Z,17.50
2018-06-12T01:01:01.494Z,17.50
2018-06-12T01:03:30.298Z,17.60
2018-06-12T01:05:59.080Z,17.60
2018-06-12T01:08:27.835Z,17.70
2018-06-12T01:10:56.657Z,17.70
2018-06-12T01:13:25.511Z,17.70
2018-06-12T01:15:54.236Z,17.80
2018-06-12T01:18:22.950Z,17.80
2018-06-12T01:20:51.705Z,17.80
2018-06-12T01:23:20.390Z,17.80
2018-06-12T01:25:49.119Z,17.70
2018-06-12T01:28:17.830Z,17.70
2018-06-12T01:30:46.550Z,17.70
2018-06-12T01:33:15.295Z,17.70
2018-06-12T01:35:44.022Z,17.60
2018-06-12T01:38:12.702Z,17.60
2018-06-12T01:43:09.773Z,17.60
2018-06-12T01:45:38.492Z,17.60
2018-06-12T01:48:07.209Z,17.50
2018-06-12T01:50:35.966Z,17.60
2018-06-12T01:53:04.725Z,17.50
2018-06-12T01:55:33.471Z,17.50
2018-06-12T01:58:02.286Z,17.50
2018-06-12T02:00:31.026Z,17.50
2018-06-12T02:02:59.750Z,17.60
2018-06-12T02:05:28.499Z,17.60
2018-06-12T02:13:49.244Z,17.50
2018-06-12T02:16:17.935Z,17.60
2018-06-12T02:18:46.617Z,17.60
2018-06-12T02:21:15.390Z,17.60
2018-06-12T02:23:44.110Z,17.60
2018-06-12T02:26:13.088Z,17.60
2018-06-12T02:28:58.152Z,17.60
2018-06-12T02:31:26.878Z,17.60
2018-06-12T02:33:55.619Z,17.50
2018-06-12T02:36:24.432Z,17.50
2018-06-12T02:38:53.141Z,17.50
2018-06-12T02:41:21.882Z,17.50
2018-06-12T02:43:50.661Z,17.40
2018-06-12T02:46:19.414Z,17.40
2018-06-12T02:48:48.148Z,17.40
2018-06-12T02:51:16.859Z,17.30
2018-06-12T02:53:45.591Z,17.20
2018-06-12T02:56:20.548Z,17.20
2018-06-12T02:58:49.247Z,17.10
2018-06-12T03:01:17.920Z,17.10
2018-06-12T03:03:46.654Z,17.10
2018-06-12T03:06:33.305Z,17.10
2018-06-12T03:09:02.062Z,17.10
2018-06-12T03:11:30.832Z,17.10
2018-06-12T03:13:59.538Z,17.10
2018-06-12T03:16:28.286Z,17.10
2018-06-12T03:18:57.042Z,17.00
2018-06-12T03:21:37.721Z,17.10
2018-06-12T03:24:06.631Z,17.10
2018-06-12T03:26:35.374Z,17.10
2018-06-12T03:29:04.105Z,17.20
2018-06-12T03:31:32.895Z,17.20
2018-06-12T03:34:01.654Z,17.20
2018-06-12T03:36:30.419Z,17.20
2018-06-12T03:38:59.149Z,17.20
2018-06-12T03:41:27.892Z,17.20
2018-06-12T03:43:56.668Z,17.20
2018-06-12T03:46:41.487Z,17.20
2018-06-12T03:49:10.190Z,17.20
2018-06-12T03:51:38.917Z,17.20
2018-06-12T03:54:07.657Z,17.20
2018-06-12T03:56:36.406Z,17.20
2018-06-12T03:59:05.198Z,17.20
2018-06-12T04:01:33.955Z,17.30
2018-06-12T04:04:02.835Z,17.30
2018-06-12T04:06:36.302Z,17.30
2018-06-12T04:09:08.315Z,17.30
2018-06-12T04:11:37.183Z,17.30
2018-06-12T04:14:05.890Z,17.30
2018-06-12T04:16:36.440Z,17.30
2018-06-12T04:19:06.785Z,17.30
2018-06-12T04:21:36.202Z,17.30
2018-06-12T04:24:04.942Z,17.30
2018-06-12T04:26:33.672Z,17.30
2018-06-12T04:29:03.038Z,17.30
2018-06-12T04:31:31.855Z,17.20
2018-06-12T04:34:00.579Z,17.20
2018-06-12T04:36:29.319Z,17.20
2018-06-12T04:38:58.007Z,17.30
2018-06-12T04:41:26.762Z,17.40
2018-06-12T04:43:55.490Z,17.40
2018-06-12T04:46:24.229Z,17.50
2018-06-12T04:48:52.981Z,17.50
2018-06-12T04:51:21.699Z,17.60
2018-06-12T04:56:18.765Z,17.70
2018-06-12T04:58:47.434Z,17.70
2018-06-12T05:03:44.446Z,18.10
2018-06-12T05:06:13.147Z,18.20
2018-06-12T05:08:41.847Z,18.20
2018-06-12T05:11:10.571Z,18.20
2018-06-12T05:13:39.274Z,18.20
2018-06-12T05:18:58.706Z,18.30
2018-06-12T05:21:28.531Z,18.30
2018-06-12T05:23:57.268Z,18.20
2018-06-12T05:26:25.997Z,18.30
2018-06-12T05:28:55.337Z,18.30
2018-06-12T05:31:24.073Z,18.50
2018-06-12T05:33:52.763Z,18.50
2018-06-12T05:36:21.487Z,18.40
2018-06-12T05:38:50.194Z,18.30
2018-06-12T05:41:18.932Z,18.50
2018-06-12T05:43:47.953Z,18.70
2018-06-12T05:48:44.993Z,18.90
2018-06-12T05:51:13.708Z,18.90
2018-06-12T05:53:42.470Z,18.90
2018-06-12T05:56:11.248Z,18.80
2018-06-12T05:58:39.936Z,18.70
2018-06-12T06:01:08.774Z,18.60
2018-06-12T06:03:37.499Z,18.60
2018-06-12T06:06:06.210Z,18.60
2018-06-12T06:08:34.936Z,18.60
2018-06-12T06:11:03.685Z,18.60
2018-06-12T06:13:32.454Z,18.50
2018-06-12T06:16:01.159Z,18.60
2018-06-12T06:18:29.870Z,18.70
2018-06-12T06:20:58.605Z,18.70
2018-06-12T06:23:27.422Z,18.70
2018-06-12T06:25:56.165Z,18.90
2018-06-12T06:28:24.886Z,19.10
2018-06-12T06:30:53.587Z,19.20
2018-06-12T06:33:22.347Z,19.50
2018-06-12T06:35:51.080Z,20.00
2018-06-12T06:38:19.788Z,20.10
2018-06-12T06:40:48.481Z,20.20
2018-06-12T06:43:17.194Z,20.30
2018-06-12T06:45:45.904Z,20.10
2018-06-12T06:48:14.622Z,20.10
2018-06-12T06:50:43.415Z,19.70
2018-06-12T06:53:12.135Z,19.50
2018-06-12T06:55:40.891Z,19.40
2018-06-12T06:58:09.635Z,19.30
2018-06-12T07:00:38.345Z,19.10
2018-06-12T07:05:35.406Z,19.00
2018-06-12T07:10:32.450Z,18.80
2018-06-12T07:13:01.149Z,18.90
2018-06-12T07:15:29.880Z,18.80
2018-06-12T07:17:58.583Z,18.90
2018-06-12T07:20:37.131Z,18.90
2018-06-12T07:23:06.071Z,18.90
2018-06-12T07:25:34.769Z,19.20
2018-06-12T07:28:03.517Z,19.40
2018-06-12T07:30:32.239Z,19.60
2018-06-12T07:33:00.946Z,19.70
2018-06-12T07:35:29.651Z,19.70
2018-06-12T07:37:58.329Z,19.70
2018-06-12T07:40:27.058Z,19.80
2018-06-12T07:42:55.752Z,19.60
2018-06-12T07:45:24.451Z,19.70
2018-06-12T07:47:53.138Z,19.70
2018-06-12T07:50:21.841Z,19.80
2018-06-12T07:52:50.599Z,19.90
2018-06-12T07:55:19.356Z,20.00
2018-06-12T07:57:48.718Z,20.10
2018-06-12T08:00:17.435Z,20.20
2018-06-12T08:02:46.168Z,20.20
2018-06-12T08:05:14.864Z,20.10
2018-06-12T08:07:43.554Z,20.20
2018-06-12T08:10:12.264Z,20.30
2018-06-12T08:12:41.023Z,20.30
2018-06-12T08:15:09.711Z,20.30
2018-06-12T08:17:38.430Z,20.30
2018-06-12T08:20:07.215Z,20.30
2018-06-12T08:22:36.366Z,20.20
2018-06-12T08:25:06.100Z,20.30
2018-06-12T08:27:34.818Z,20.30
2018-06-12T08:30:03.760Z,20.20
2018-06-12T08:32:32.346Z,19.90
2018-06-12T08:35:01.042Z,19.80
2018-06-12T08:37:29.735Z,19.90
2018-06-12T08:39:58.445Z,20.20
2018-06-12T08:42:27.174Z,20.30
2018-06-12T08:44:55.862Z,20.20
2018-06-12T08:47:24.530Z,20.30
2018-06-12T08:49:53.693Z,20.60
2018-06-12T08:52:22.474Z,20.90
2018-06-12T08:54:51.198Z,20.80
2018-06-12T08:57:19.879Z,20.70
2018-06-12T08:59:48.564Z,21.00
2018-06-12T09:02:17.294Z,21.50
2018-06-12T09:04:45.971Z,21.70
2018-06-12T09:07:14.675Z,22.10
2018-06-12T09:09:43.347Z,22.30
2018-06-12T09:12:12.058Z,22.20
2018-06-12T09:14:41.642Z,22.50
2018-06-12T09:17:10.330Z,22.90
2018-06-12T09:19:39.022Z,22.40
2018-06-12T09:22:07.714Z,22.00
2018-06-12T09:24:36.402Z,22.00
2018-06-12T09:27:05.202Z,22.30
2018-06-12T09:29:33.922Z,22.10
2018-06-12T09:34:31.447Z,21.90
2018-06-12T09:37:00.161Z,22.40
2018-06-12T09:39:28.882Z,22.80
2018-06-12T09:41:57.587Z,22.80
2018-06-12T09:44:26.310Z,23.10
2018-06-12T09:46:55.008Z,23.30
2018-06-12T09:49:23.688Z,22.90
2018-06-12T09:51:52.438Z,22.90
2018-06-12T09:54:21.169Z,22.80
2018-06-12T09:56:49.863Z,22.80
2018-06-12T09:59:18.559Z,22.50
2018-06-12T10:01:47.282Z,22.30
2018-06-12T10:04:16.007Z,22.30
2018-06-12T10:06:44.680Z,22.40
2018-06-12T10:09:13.430Z,22.70
2018-06-12T10:11:42.132Z,22.90
2018-06-12T10:14:10.847Z,23.10
2018-06-12T10:16:39.587Z,22.70
2018-06-12T10:19:08.252Z,22.80
2018-06-12T10:21:36.975Z,23.00
2018-06-12T10:24:06.281Z,23.20
2018-06-12T10:26:34.959Z,23.50
2018-06-12T10:29:03.672Z,23.70
2018-06-12T10:31:32.352Z,23.90
2018-06-12T10:34:01.098Z,24.10
2018-06-12T10:36:29.788Z,24.10
2018-06-12T10:38:58.520Z,24.40
2018-06-12T10:41:27.959Z,24.30
2018-06-12T10:43:56.654Z,24.20
2018-06-12T10:46:25.407Z,24.50
2018-06-12T10:48:54.099Z,24.80
2018-06-12T10:51:22.830Z,24.70
2018-06-12T10:53:51.600Z,24.20
2018-06-12T10:56:20.313Z,23.40
2018-06-12T10:58:49.034Z,22.20
2018-06-12T11:01:17.747Z,21.70
2018-06-12T11:03:46.473Z,21.20
2018-06-12T11:06:15.200Z,20.90
2018-06-12T11:08:43.905Z,20.70
2018-06-12T11:13:47.569Z,20.30
2018-06-12T11:16:16.482Z,20.30
2018-06-12T11:18:45.486Z,20.10
2018-06-12T11:21:25.605Z,19.90
2018-06-12T11:23:54.276Z,19.80
2018-06-12T11:26:22.967Z,19.40
2018-06-12T11:28:51.673Z,18.80
2018-06-12T11:31:20.338Z,18.40
2018-06-12T11:33:49.049Z,18.20
2018-06-12T11:36:17.737Z,18.10
2018-06-12T11:38:46.786Z,17.80
2018-06-12T11:41:16.587Z,17.70
2018-06-12T11:43:45.266Z,17.60
2018-06-12T11:46:14.032Z,17.60
2018-06-12T11:48:42.797Z,17.50
2018-06-12T11:51:11.487Z,17.50
2018-06-12T11:53:40.182Z,17.50
2018-06-12T11:56:08.862Z,17.60
2018-06-12T11:58:37.567Z,17.60
2018-06-12T12:01:06.921Z,17.60
2018-06-12T12:03:35.624Z,17.60
2018-06-12T12:06:04.333Z,17.50
2018-06-12T12:08:33.007Z,17.50
2018-06-12T12:11:02.255Z,17.50
2018-06-12T12:13:30.951Z,17.50
2018-06-12T12:15:59.611Z,17.50
2018-06-12T12:18:28.302Z,17.50
2018-06-12T12:20:56.957Z,17.50
2018-06-12T12:23:25.666Z,17.50
2018-06-12T12:25:54.324Z,17.50
2018-06-12T12:28:23.010Z,17.40
2018-06-12T12:30:51.726Z,17.20
2018-06-12T12:35:48.718Z,16.90
2018-06-12T12:38:17.395Z,16.90
2018-06-12T12:40:46.051Z,16.90
2018-06-12T12:43:14.746Z,16.80
2018-06-12T12:45:43.429Z,16.70
2018-06-12T12:48:12.115Z,16.70
2018-06-12T12:50:40.808Z,16.70
2018-06-12T12:55:37.931Z,16.70
2018-06-12T12:58:06.759Z,16.80
2018-06-12T13:00:36.149Z,16.80
2018-06-12T13:03:04.846Z,16.90
2018-06-12T13:08:01.934Z,17.10
2018-06-12T13:10:30.645Z,17.30
2018-06-12T13:12:59.334Z,17.40
2018-06-12T13:15:28.119Z,17.40
2018-06-12T13:17:56.843Z,17.40
2018-06-12T13:20:25.670Z,17.40
2018-06-12T13:22:54.442Z,17.20
2018-06-12T13:27:51.505Z,17.20
2018-06-12T13:30:20.235Z,17.10
2018-06-12T13:32:48.927Z,17.00
2018-06-12T13:35:17.635Z,17.00
2018-06-12T13:37:46.302Z,17.00
2018-06-12T13:40:15.019Z,17.00
2018-06-12T13:42:43.698Z,17.00
2018-06-12T13:45:13.338Z,17.00
2018-06-12T13:47:41.998Z,17.10
2018-06-12T13:50:10.724Z,17.00
2018-06-12T13:52:39.474Z,17.00
2018-06-12T13:55:08.159Z,16.90
2018-06-12T13:57:36.865Z,16.90
2018-06-12T14:02:33.937Z,17.00
2018-06-12T14:05:02.638Z,17.00
2018-06-12T14:07:31.323Z,17.00
2018-06-12T14:10:00.028Z,17.00
2018-06-12T14:12:28.723Z,17.00
2018-06-12T14:14:57.423Z,17.10
2018-06-12T14:17:26.950Z,17.20
2018-06-12T14:19:55.646Z,17.20
2018-06-12T14:22:24.478Z,17.20
2018-06-12T14:24:53.163Z,17.20
2018-06-12T14:27:21.862Z,17.20
2018-06-12T14:29:50.587Z,17.30
2018-06-12T14:34:47.593Z,17.40
2018-06-12T14:37:16.287Z,17.40
2018-06-12T14:39:45.102Z,17.50
2018-06-12T14:42:14.682Z,17.60
2018-06-12T14:44:43.365Z,17.60
2018-06-12T14:47:12.129Z,17.60
2018-06-12T14:49:40.851Z,17.80
2018-06-12T14:52:09.558Z,17.80
2018-06-12T14:54:38.612Z,17.90
2018-06-12T14:57:07.319Z,17.80
2018-06-12T14:59:36.057Z,18.00
2018-06-12T15:02:04.779Z,18.00
2018-06-12T15:04:33.538Z,18.10
2018-06-12T15:07:02.361Z,18.30
2018-06-12T15:09:31.167Z,18.40
2018-06-12T15:12:00.012Z,18.50
2018-06-12T15:14:28.712Z,18.60
2018-06-12T15:16:57.410Z,18.80
2018-06-12T15:19:26.129Z,19.00
2018-06-12T15:21:55.571Z,19.20
2018-06-12T15:24:24.282Z,19.50
2018-06-12T15:26:53.007Z,19.60
2018-06-12T15:29:21.695Z,19.20
2018-06-12T15:31:50.443Z,19.10
2018-06-12T15:34:19.215Z,19.20
2018-06-12T15:36:47.990Z,19.10
2018-06-12T15:41:45.011Z,19.10
2018-06-12T15:44:13.711Z,19.20
2018-06-12T15:46:42.458Z,19.40
2018-06-12T15:49:11.179Z,19.50
2018-06-12T15:51:40.215Z,19.70
2018-06-12T15:54:09.077Z,19.50
2018-06-12T15:56:37.871Z,19.30
2018-06-12T15:59:06.564Z,19.20
2018-06-12T16:01:35.273Z,19.30
2018-06-12T16:04:03.981Z,19.30
2018-06-12T16:06:32.658Z,19.20
2018-06-12T16:09:01.417Z,19.20
2018-06-12T16:11:30.092Z,19.40
2018-06-12T16:13:58.783Z,19.70
2018-06-12T16:18:56.276Z,20.10
2018-06-12T16:21:25.029Z,20.20
2018-06-12T16:23:53.709Z,20.10
2018-06-12T16:26:22.659Z,20.00
2018-06-12T16:28:51.342Z,20.00
2018-06-12T16:31:20.011Z,20.00
2018-06-12T16:33:48.702Z,20.00
2018-06-12T16:36:18.070Z,20.00
2018-06-12T16:38:46.753Z,19.90
2018-06-12T16:41:17.528Z,19.70
2018-06-12T16:43:46.256Z,19.50
2018-06-12T16:46:14.974Z,19.30
2018-06-12T16:48:43.877Z,19.10
2018-06-12T16:51:12.592Z,19.00
2018-06-12T16:53:41.351Z,19.10
2018-06-12T16:59:15.701Z,19.10
2018-06-12T17:01:44.392Z,19.20
2018-06-12T17:04:13.105Z,19.20
2018-06-12T17:06:42.169Z,19.20
2018-06-12T17:09:10.874Z,19.10
2018-06-12T17:11:39.595Z,19.00
2018-06-12T17:14:08.875Z,18.90
2018-06-12T17:16:37.598Z,18.90
2018-06-12T17:19:06.365Z,18.90
2018-06-12T17:21:35.050Z,18.80
2018-06-12T17:24:03.765Z,18.90
2018-06-12T17:26:32.438Z,18.90
2018-06-12T17:29:01.165Z,18.80
2018-06-12T17:31:30.808Z,18.70
2018-06-12T17:33:59.511Z,18.50
2018-06-12T17:36:28.524Z,18.20
2018-06-12T17:38:57.166Z,18.00
2018-06-12T17:41:25.871Z,17.70
2018-06-12T17:46:54.142Z,17.40
2018-06-12T17:49:22.798Z,17.30
2018-06-12T17:51:51.466Z,17.30
2018-06-12T17:54:20.182Z,17.20
2018-06-12T17:56:48.905Z,17.10
2018-06-12T17:59:17.626Z,17.10
2018-06-12T18:01:46.279Z,16.90
2018-06-12T18:04:14.950Z,16.90
2018-06-12T18:06:43.658Z,16.90
2018-06-12T18:09:12.326Z,16.80
2018-06-12T18:11:41.131Z,16.80
2018-06-12T18:14:10.130Z,16.80
2018-06-12T18:19:07.474Z,16.70
2018-06-12T18:21:37.166Z,16.60
2018-06-12T18:24:06.556Z,16.50
2018-06-12T18:26:38.759Z,16.50
2018-06-12T18:29:07.485Z,16.50
2018-06-12T18:31:36.172Z,16.50
2018-06-12T18:34:04.876Z,16.50
2018-06-12T18:36:40.436Z,16.50
2018-06-12T18:39:09.205Z,16.60
2018-06-12T18:41:37.931Z,16.60
2018-06-12T18:44:06.660Z,16.60
2018-06-12T18:46:35.330Z,16.50
2018-06-12T18:49:04.059Z,16.60
2018-06-12T18:51:32.772Z,16.50
2018-06-12T18:54:01.543Z,16.60
2018-06-12T18:56:30.234Z,16.50
2018-06-12T18:58:59.005Z,16.50
2018-06-12T19:01:27.719Z,16.50
2018-06-12T19:03:56.378Z,16.50
2018-06-12T19:06:25.160Z,16.50
2018-06-12T19:08:53.810Z,16.40
2018-06-12T19:11:22.503Z,16.50
2018-06-12T19:13:51.271Z,16.50
2018-06-12T19:16:19.993Z,16.50
2018-06-12T19:18:48.936Z,16.50
2018-06-12T19:21:17.615Z,16.50
2018-06-12T19:23:46.458Z,16.60
2018-06-12T19:26:15.130Z,16.60
2018-06-12T19:28:43.847Z,16.50
2018-06-12T19:31:12.553Z,16.40
2018-06-12T19:33:41.343Z,16.40
2018-06-12T19:36:10.046Z,16.30
2018-06-12T19:38:45.817Z,16.40
2018-06-12T19:41:14.599Z,16.40
2018-06-12T19:43:50.225Z,16.30
2018-06-12T19:46:24.903Z,16.30
2018-06-12T19:48:53.672Z,16.20
2018-06-12T19:51:22.363Z,16.20
2018-06-12T19:53:51.132Z,16.20
2018-06-12T19:56:19.899Z,16.10
2018-06-12T19:58:48.555Z,16.10
2018-06-12T20:01:17.266Z,16.20
2018-06-12T20:03:47.980Z,16.10
2018-06-12T20:06:16.702Z,16.10
2018-06-12T20:08:45.479Z,16.10
2018-06-12T20:11:14.227Z,16.10
2018-06-12T20:13:43.010Z,16.10
2018-06-12T20:16:11.715Z,16.10
2018-06-12T20:18:44.571Z,16.10
2018-06-12T20:23:41.535Z,16.00
2018-06-12T20:26:11.225Z,15.90
2018-06-12T20:28:39.967Z,15.90
2018-06-12T20:31:09.003Z,15.80
2018-06-12T20:33:37.688Z,15.80
2018-06-12T20:36:07.230Z,15.80
2018-06-12T20:38:35.920Z,15.80
2018-06-12T20:41:04.601Z,15.80
2018-06-12T20:43:33.342Z,15.70
2018-06-12T20:46:02.049Z,15.60
2018-06-12T20:48:30.745Z,15.60
2018-06-12T20:53:27.846Z,15.40
2018-06-12T20:55:56.589Z,15.40
2018-06-12T20:58:25.311Z,15.40
2018-06-12T21:00:54.018Z,15.30
2018-06-12T21:03:22.714Z,15.30
2018-06-12T21:05:51.380Z,15.30
2018-06-12T21:08:21.109Z,15.30
2018-06-12T21:10:49.823Z,15.30
2018-06-12T21:13:18.527Z,15.20
2018-06-12T21:15:47.274Z,15.20
2018-06-12T21:18:16.015Z,15.20
2018-06-12T21:20:44.787Z,15.20
2018-06-12T21:25:41.832Z,15.20
2018-06-12T21:28:10.642Z,15.10
2018-06-12T21:30:39.339Z,15.20
2018-06-12T21:33:08.052Z,15.20
2018-06-12T21:35:37.028Z,15.20
2018-06-12T21:38:05.987Z,15.20
2018-06-12T21:40:34.918Z,15.20
2018-06-12T21:43:03.746Z,15.20
2018-06-12T21:45:32.474Z,15.20
2018-06-12T21:48:01.191Z,15.10
2018-06-12T21:50:29.875Z,15.00
2018-06-12T21:52:58.565Z,15.10
2018-06-12T21:55:27.271Z,15.00
2018-06-12T21:57:55.985Z,15.10
2018-06-12T22:00:31.983Z,15.10
2018-06-12T22:03:04.318Z,15.10
2018-06-12T22:08:01.322Z,15.10
2018-06-12T22:10:30.059Z,15.10
2018-06-12T22:15:30.218Z,15.10
2018-06-12T22:17:58.902Z,15.00
2018-06-12T22:20:27.571Z,15.00
2018-06-12T22:22:56.279Z,15.00
2018-06-12T22:25:24.975Z,15.00
2018-06-12T22:27:53.738Z,14.90
2018-06-12T22:32:50.744Z,15.00
2018-06-12T22:35:19.470Z,15.00
2018-06-12T22:37:49.193Z,14.90
2018-06-12T22:40:17.923Z,14.90
2018-06-12T22:42:46.627Z,14.90
2018-06-12T22:45:15.302Z,14.90
2018-06-12T22:47:44.024Z,14.90
2018-06-12T22:50:16.137Z,14.90
2018-06-12T22:52:44.871Z,14.90
2018-06-12T22:55:13.562Z,14.90
2018-06-12T22:57:45.798Z,14.90
2018-06-12T23:00:20.482Z,14.90
2018-06-12T23:02:49.854Z,14.90
2018-06-12T23:05:18.594Z,14.80
2018-06-12T23:07:47.314Z,14.90
2018-06-12T23:10:16.050Z,14.80
2018-06-12T23:12:57.512Z,14.80
2018-06-12T23:15:26.245Z,14.90
2018-06-12T23:17:54.910Z,14.80
2018-06-12T23:20:34.918Z,14.70
2018-06-12T23:23:03.606Z,14.70
2018-06-12T23:25:32.294Z,14.70
2018-06-12T23:28:01.006Z,14.70
2018-06-12T23:30:29.697Z,14.60
2018-06-12T23:32:58.415Z,14.60
2018-06-12T23:35:27.109Z,14.70
2018-06-12T23:37:55.788Z,14.60
2018-06-12T23:40:24.501Z,14.50
2018-06-12T23:42:56.541Z,14.50
2018-06-12T23:45:28.410Z,14.40
2018-06-12T23:47:57.091Z,14.40
2018-06-12T23:50:25.769Z,14.40
2018-06-12T23:52:54.488Z,14.40
2018-06-12T23:55:23.154Z,14.50
2018-06-12T23:57:51.862Z,14.40
